aviador You're here:

LCPH Decoded Metar

PAPHOS in CYPRUS
Report Time2017-10-22 17:00:00
UTC Time2017-10-22 17:18:32
Flight Rules vfr VFR
Wind340° at 03 kt
W.Decomp.*RWY 29: 2.1 kt HW 2.2 kt RCW
W.Rank340° ranks 18
Current wind is below 340° avg. (4.9)
Visibility9999 m
Phenomena:N/A
Clouds:Few 025 Hf
Expected CloudBase > 2,000 ft AGL from Temp-Dew spread
CeilingNone
Temp20°C (ISA +5)
Dew Point15°C (73% RH)
QNH1013 hPa
Density Alt843 ft
Elevation26 ft
Report Wrong Elevation
Raw Report
LCPH 221700Z 34003KT 9999 FEW025 20/15 Q1013=

Extra information for LCPH:More info

Metar Taf Metar & Taf Last 4 Metars F.Rules Stats Wind Profile Meteogram Temp Stats Airport Information Weather charts Add Link Nearby VenuesMetar ALERT Operation Metar Decoded Social comments